Time;durP1;ratioP1;P1;durP2;ratioP2;P2;SDS_P1;SDS_P2;PMS_P1;PMS_P2;Temp;Humidity;BMP_temperature;BMP_pressure;BME280_temperature;BME280_humidity;BME280_pressure;Samples;Min_cycle;Max_cycle;Signal;HPM_P1;HPM_P2
2022/04/12 00:00:00;;;;;;;10.30;3.80;;;3.50;82.00;;;;;;4882127;29;20267;-87
2022/04/12 00:02:29;;;;;;;9.70;4.10;;;3.40;82.20;;;;;;4882033;29;20242;-87
2022/04/12 00:04:54;;;;;;;7.10;3.50;;;3.40;82.40;;;;;;4882848;29;20283;-87
2022/04/12 00:07:20;;;;;;;9.00;3.40;;;3.40;82.50;;;;;;4883511;29;20174;-85
2022/04/12 00:09:46;;;;;;;9.80;3.97;;;3.40;82.50;;;;;;4883536;29;20198;-86
2022/04/12 00:12:15;;;;;;;10.03;3.33;;;3.30;82.50;;;;;;4882667;29;20182;-89
2022/04/12 00:14:41;;;;;;;16.23;3.90;;;3.30;82.60;;;;;;4880194;29;20242;-89
2022/04/12 00:19:50;;;;;;;5.37;2.97;;;3.30;82.70;;;;;;4881438;29;20172;-88
2022/04/12 00:22:16;;;;;;;7.03;3.43;;;3.30;82.80;;;;;;4880064;29;20297;-89
2022/04/12 00:24:42;;;;;;;6.60;3.93;;;3.20;82.90;;;;;;4881541;29;20189;-89
2022/04/12 00:27:07;;;;;;;3.63;3.03;;;3.10;83.10;;;;;;4879479;29;20184;-89
2022/04/12 00:29:33;;;;;;;9.83;3.70;;;3.20;83.20;;;;;;4879827;29;20203;-89
2022/04/12 00:31:59;;;;;;;8.87;3.53;;;3.10;83.20;;;;;;4880419;29;20192;-89
2022/04/12 00:34:25;;;;;;;8.13;3.50;;;3.10;83.30;;;;;;4880400;29;20178;-88
2022/04/12 00:36:50;;;;;;;6.43;3.37;;;3.00;83.50;;;;;;4880428;29;20239;-89
2022/04/12 00:39:16;;;;;;;11.53;3.93;;;3.00;83.70;;;;;;4881346;29;20212;-88
2022/04/12 00:41:42;;;;;;;6.07;3.57;;;3.00;83.90;;;;;;4880407;29;20210;-90
2022/04/12 00:44:08;;;;;;;8.67;3.80;;;3.00;84.00;;;;;;4880398;29;20178;-89
2022/04/12 00:46:34;;;;;;;9.97;3.73;;;3.10;84.00;;;;;;4880356;29;20543;-90
2022/04/12 00:49:00;;;;;;;7.00;3.97;;;3.20;84.00;;;;;;4880126;29;20258;-89
2022/04/12 00:51:26;;;;;;;11.80;4.27;;;3.20;84.00;;;;;;4881468;29;20264;-90
2022/04/12 00:53:52;;;;;;;7.87;3.90;;;3.20;84.00;;;;;;4879397;29;20182;-89
2022/04/12 00:56:18;;;;;;;7.23;3.57;;;3.30;83.70;;;;;;4879764;29;20653;-88
2022/04/12 00:58:46;;;;;;;7.17;3.67;;;3.40;83.50;;;;;;4880268;29;20216;-89
2022/04/12 01:01:12;;;;;;;7.40;3.47;;;3.50;83.40;;;;;;4881295;29;20206;-89
2022/04/12 01:03:38;;;;;;;4.00;3.40;;;3.50;83.40;;;;;;4880356;29;20265;-89
2022/04/12 01:06:03;;;;;;;7.50;4.00;;;3.50;83.40;;;;;;4880118;29;20217;-89
2022/04/12 01:08:29;;;;;;;5.87;3.77;;;3.50;83.20;;;;;;4880099;29;20303;-88
2022/04/12 01:10:55;;;;;;;8.13;3.50;;;3.60;83.10;;;;;;4879885;29;20197;-89
2022/04/12 01:13:21;;;;;;;10.27;3.73;;;3.60;83.00;;;;;;4879612;29;20258;-89
2022/04/12 01:15:47;;;;;;;14.83;3.73;;;3.60;83.00;;;;;;4879729;29;20644;-89
2022/04/12 01:18:12;;;;;;;11.23;3.70;;;3.60;83.00;;;;;;4879847;29;20307;-89
2022/04/12 01:20:38;;;;;;;7.47;3.43;;;3.60;82.90;;;;;;4879553;29;20662;-89
2022/04/12 01:23:18;;;;;;;7.57;3.80;;;3.60;82.80;;;;;;4879702;29;20178;-89
2022/04/12 01:25:44;;;;;;;4.03;3.00;;;3.60;82.90;;;;;;4880655;29;20254;-90
2022/04/12 01:28:11;;;;;;;11.67;3.90;;;3.60;82.70;;;;;;4879446;29;20233;-89
2022/04/12 01:30:37;;;;;;;6.20;3.47;;;3.60;82.50;;;;;;4879437;29;20277;-89
2022/04/12 01:33:04;;;;;;;9.33;3.70;;;3.70;82.60;;;;;;4879702;29;20190;-89
2022/04/12 01:35:30;;;;;;;8.63;3.53;;;3.60;82.60;;;;;;4880467;29;20189;-87
2022/04/12 01:37:56;;;;;;;7.27;3.73;;;3.60;82.80;;;;;;4879296;29;20296;-90
2022/04/12 01:40:22;;;;;;;11.27;4.17;;;3.60;83.00;;;;;;4880347;29;20708;-89
2022/04/12 01:42:47;;;;;;;10.13;4.80;;;3.60;82.90;;;;;;4879600;29;20186;-89
2022/04/12 01:45:13;;;;;;;8.70;3.70;;;3.50;83.00;;;;;;4879555;29;20186;-90
2022/04/12 01:47:38;;;;;;;8.40;3.70;;;3.50;83.10;;;;;;4879279;29;20326;-88
2022/04/12 01:50:06;;;;;;;9.07;3.80;;;3.50;83.00;;;;;;4879177;29;20241;-91
2022/04/12 01:52:33;;;;;;;5.77;3.70;;;3.50;83.20;;;;;;4879997;29;20185;-89
2022/04/12 01:54:58;;;;;;;8.80;3.60;;;3.50;83.20;;;;;;4878813;29;20194;-90
2022/04/12 01:57:24;;;;;;;5.07;3.87;;;3.50;83.10;;;;;;4878814;29;20178;-89
2022/04/12 01:59:49;;;;;;;10.27;3.93;;;3.40;83.20;;;;;;4878953;29;20724;-90
2022/04/12 02:02:15;;;;;;;8.20;4.07;;;3.40;83.30;;;;;;4879974;29;20285;-87
2022/04/12 02:04:40;;;;;;;9.87;4.20;;;3.50;83.30;;;;;;4879075;29;20212;-87
2022/04/12 02:07:06;;;;;;;9.37;3.77;;;3.50;83.20;;;;;;4878909;29;20221;-89
2022/04/12 02:09:32;;;;;;;8.77;3.97;;;3.50;83.40;;;;;;4878663;29;20241;-90
2022/04/12 02:11:58;;;;;;;8.20;3.87;;;3.50;83.40;;;;;;4878649;29;20251;-90
2022/04/12 02:14:24;;;;;;;9.90;4.47;;;3.50;83.40;;;;;;4878870;29;20193;-89
2022/04/12 02:16:50;;;;;;;6.37;3.50;;;3.50;83.30;;;;;;4878782;29;20189;-89
2022/04/12 02:19:15;;;;;;;6.93;4.10;;;3.50;83.40;;;;;;4878802;29;20626;-90
2022/04/12 02:21:41;;;;;;;8.53;4.37;;;3.50;83.50;;;;;;4878566;29;20304;-90
2022/04/12 02:24:07;;;;;;;11.07;4.00;;;3.40;83.40;;;;;;4879787;29;20182;-89
2022/04/12 02:26:32;;;;;;;9.27;3.87;;;3.50;83.50;;;;;;4878597;29;20208;-89
2022/04/12 02:28:58;;;;;;;7.27;4.93;;;3.40;83.50;;;;;;4878612;29;20209;-90
2022/04/12 02:31:23;;;;;;;8.63;4.10;;;3.50;83.50;;;;;;4879806;29;20668;-89
2022/04/12 02:33:49;;;;;;;6.57;3.97;;;3.50;83.50;;;;;;4879292;29;20200;-90
2022/04/12 02:36:14;;;;;;;8.07;4.60;;;3.40;83.50;;;;;;4878522;29;20660;-90
2022/04/12 02:38:40;;;;;;;7.60;3.70;;;3.40;83.50;;;;;;4879626;29;20206;-88
2022/04/12 02:41:05;;;;;;;8.67;3.70;;;3.40;83.50;;;;;;4878429;29;20209;-89
2022/04/12 02:43:31;;;;;;;11.47;4.83;;;3.50;83.50;;;;;;4879726;29;20206;-90
2022/04/12 02:45:58;;;;;;;6.53;3.67;;;3.50;83.50;;;;;;4878861;29;20189;-89
2022/04/12 02:48:24;;;;;;;7.40;4.00;;;3.50;83.50;;;;;;4879566;29;20618;-90
2022/04/12 02:50:50;;;;;;;7.93;4.33;;;3.40;83.50;;;;;;4880556;29;20208;-89
2022/04/12 02:53:16;;;;;;;9.97;3.93;;;3.50;83.50;;;;;;4883152;29;20182;-90
2022/04/12 02:55:41;;;;;;;7.40;3.90;;;3.40;83.60;;;;;;4881835;29;20190;-89
2022/04/12 02:58:07;;;;;;;13.87;4.53;;;3.40;83.60;;;;;;4881863;29;20210;-89
2022/04/12 03:00:32;;;;;;;6.07;3.83;;;3.40;83.60;;;;;;4881791;29;20248;-89
2022/04/12 03:02:58;;;;;;;8.73;4.13;;;3.40;83.70;;;;;;4881955;29;20290;-89
2022/04/12 03:05:23;;;;;;;5.83;3.90;;;3.50;83.60;;;;;;4882030;29;20178;-89
2022/04/12 03:07:49;;;;;;;6.40;3.90;;;3.40;83.50;;;;;;4881831;29;20206;-90
2022/04/12 03:10:14;;;;;;;14.13;4.27;;;3.50;83.50;;;;;;4882868;29;20177;-89
2022/04/12 03:12:40;;;;;;;7.80;4.10;;;3.50;83.40;;;;;;4881665;29;20612;-89
2022/04/12 03:15:08;;;;;;;5.47;4.20;;;3.50;83.30;;;;;;4881497;29;20269;-89
2022/04/12 03:17:33;;;;;;;9.03;3.87;;;3.50;83.20;;;;;;4882770;29;20184;-89
2022/04/12 03:19:59;;;;;;;7.80;4.00;;;3.50;83.20;;;;;;4881467;29;20182;-89
2022/04/12 03:22:24;;;;;;;8.37;4.23;;;3.50;83.20;;;;;;4881525;29;20202;-89
2022/04/12 03:24:50;;;;;;;10.73;4.37;;;3.50;83.30;;;;;;4881430;29;20173;-88
2022/04/12 03:27:16;;;;;;;11.73;4.10;;;3.50;83.30;;;;;;4881160;29;20192;-90
2022/04/12 03:29:42;;;;;;;8.53;4.20;;;3.40;83.40;;;;;;4881121;29;20573;-89
2022/04/12 03:32:08;;;;;;;9.10;4.23;;;3.40;83.40;;;;;;4881326;29;20190;-89
2022/04/12 03:34:33;;;;;;;8.33;3.97;;;3.50;83.30;;;;;;4881423;29;20660;-89
2022/04/12 03:37:00;;;;;;;9.17;4.23;;;3.50;83.30;;;;;;4881266;29;20181;-89
2022/04/12 03:39:25;;;;;;;6.03;4.00;;;3.50;83.20;;;;;;4882850;29;20210;-89
2022/04/12 03:41:52;;;;;;;9.17;4.37;;;3.60;83.10;;;;;;4882436;29;20209;-89
2022/04/12 03:44:18;;;;;;;8.20;4.40;;;3.50;83.20;;;;;;4881236;29;20213;-89
2022/04/12 03:46:43;;;;;;;8.80;4.83;;;3.60;83.30;;;;;;4881095;29;20186;-89
2022/04/12 03:49:10;;;;;;;5.20;3.67;;;3.50;83.30;;;;;;4881101;29;20213;-89
2022/04/12 03:51:36;;;;;;;9.07;4.03;;;3.60;83.40;;;;;;4882125;29;20582;-90
2022/04/12 03:54:03;;;;;;;7.53;3.70;;;3.60;83.20;;;;;;4881414;29;20189;-89
2022/04/12 03:56:28;;;;;;;14.37;4.40;;;3.60;83.20;;;;;;4882714;29;20452;-89
2022/04/12 03:58:54;;;;;;;6.73;4.13;;;3.60;83.40;;;;;;4881142;29;20218;-89
2022/04/12 04:01:20;;;;;;;5.70;4.00;;;3.50;83.40;;;;;;4882656;29;20213;-90
2022/04/12 04:03:45;;;;;;;6.03;4.07;;;3.60;83.30;;;;;;4881037;29;20186;-89
2022/04/12 04:06:11;;;;;;;6.87;4.27;;;3.60;83.10;;;;;;4881259;29;20185;-89
2022/04/12 04:08:37;;;;;;;8.60;4.70;;;3.70;82.90;;;;;;4880862;29;20213;-89
2022/04/12 04:11:02;;;;;;;7.00;3.90;;;3.70;82.80;;;;;;4881242;29;20216;-89
2022/04/12 04:13:30;;;;;;;12.07;4.47;;;3.80;82.50;;;;;;4886423;29;20261;-87
2022/04/12 04:15:56;;;;;;;8.70;4.27;;;3.80;82.50;;;;;;4880891;29;20251;-88
2022/04/12 04:18:22;;;;;;;7.63;4.10;;;3.80;82.70;;;;;;4882201;29;20213;-89
2022/04/12 04:20:48;;;;;;;6.13;4.00;;;3.80;82.40;;;;;;4880910;29;20210;-87
2022/04/12 04:23:13;;;;;;;6.63;4.10;;;3.90;82.20;;;;;;4881045;29;20273;-90
2022/04/12 04:25:39;;;;;;;8.40;4.43;;;3.90;82.20;;;;;;4880938;29;20186;-87
2022/04/12 04:28:11;;;;;;;8.37;4.50;;;3.90;82.30;;;;;;4882549;29;20199;-89
2022/04/12 04:30:38;;;;;;;9.63;4.40;;;3.90;82.20;;;;;;4880721;29;20190;-88
2022/04/12 04:33:06;;;;;;;9.90;4.60;;;3.90;82.10;;;;;;4882225;29;20182;-90
2022/04/12 04:35:31;;;;;;;6.63;4.40;;;3.90;82.00;;;;;;4880892;29;20220;-89
2022/04/12 04:37:57;;;;;;;5.53;4.03;;;4.00;81.90;;;;;;4880848;29;20205;-90
2022/04/12 04:40:23;;;;;;;7.80;4.77;;;4.00;81.90;;;;;;4880616;29;20185;-90
2022/04/12 04:42:52;;;;;;;9.20;4.77;;;4.10;81.80;;;;;;4881983;29;20182;-89
2022/04/12 04:45:18;;;;;;;7.47;4.20;;;4.10;81.70;;;;;;4880889;29;20188;-89
2022/04/12 04:47:54;;;;;;;7.03;3.83;;;4.10;81.80;;;;;;4881663;29;20179;-89
2022/04/12 04:50:25;;;;;;;5.10;4.60;;;4.20;81.80;;;;;;4880381;29;20193;-89
2022/04/12 04:52:51;;;;;;;5.43;4.27;;;4.20;81.70;;;;;;4880275;29;20178;-88
2022/04/12 04:55:18;;;;;;;8.00;4.97;;;4.20;81.70;;;;;;4880335;29;20297;-89
2022/04/12 04:57:45;;;;;;;11.77;4.30;;;4.20;81.60;;;;;;4880238;29;20209;-88
2022/04/12 05:00:15;;;;;;;12.00;4.47;;;4.20;81.70;;;;;;4880363;29;20283;-90
2022/04/12 05:02:51;;;;;;;5.60;4.07;;;4.20;81.70;;;;;;4880009;29;20183;-89
2022/04/12 05:05:17;;;;;;;10.80;4.63;;;4.20;81.80;;;;;;4882031;29;20170;-90
2022/04/12 05:07:46;;;;;;;7.10;4.57;;;4.20;81.90;;;;;;4881280;29;20679;-89
2022/04/12 05:10:17;;;;;;;6.53;4.07;;;4.20;81.80;;;;;;4881261;29;20584;-89
2022/04/12 05:12:43;;;;;;;8.03;4.30;;;4.30;81.70;;;;;;4880108;29;20646;-89
2022/04/12 05:15:09;;;;;;;10.47;4.20;;;4.30;81.50;;;;;;4879528;29;20193;-89
2022/04/12 05:17:35;;;;;;;8.13;4.80;;;4.30;81.90;;;;;;4880321;29;20186;-88
2022/04/12 05:20:01;;;;;;;6.83;4.70;;;4.30;81.70;;;;;;4879857;29;20194;-90
2022/04/12 05:22:27;;;;;;;7.00;4.40;;;4.30;81.60;;;;;;4879703;29;20203;-89
2022/04/12 05:24:53;;;;;;;10.73;5.10;;;4.30;81.50;;;;;;4881025;29;20187;-89
2022/04/12 05:27:20;;;;;;;7.87;4.87;;;4.30;81.40;;;;;;4880037;29;20259;-90
2022/04/12 05:29:45;;;;;;;9.47;4.37;;;4.40;81.30;;;;;;4880012;29;20211;-89
2022/04/12 05:32:13;;;;;;;8.83;4.53;;;4.40;81.00;;;;;;4881000;29;20657;-89
2022/04/12 05:34:42;;;;;;;9.77;5.03;;;4.40;81.20;;;;;;4879814;29;20209;-89
2022/04/12 05:37:08;;;;;;;8.70;4.50;;;4.50;81.00;;;;;;4881127;29;20255;-89
2022/04/12 05:39:34;;;;;;;9.83;4.27;;;4.50;81.00;;;;;;4880066;29;20242;-89
2022/04/12 05:42:00;;;;;;;10.80;4.50;;;4.60;80.70;;;;;;4880510;29;20258;-89
2022/04/12 05:44:33;;;;;;;9.03;4.57;;;4.60;80.70;;;;;;4880383;29;20186;-89
2022/04/12 05:47:00;;;;;;;6.53;4.20;;;4.70;80.40;;;;;;4879881;29;20239;-89
2022/04/12 05:49:26;;;;;;;4.77;4.27;;;4.80;80.30;;;;;;4880119;29;20293;-90
2022/04/12 05:51:51;;;;;;;8.63;4.70;;;4.80;80.00;;;;;;4880983;29;20614;-89
2022/04/12 05:54:17;;;;;;;5.03;4.10;;;4.80;80.00;;;;;;4879723;29;20692;-89
2022/04/12 05:56:42;;;;;;;6.07;4.60;;;4.90;79.70;;;;;;4880964;29;20186;-89
2022/04/12 05:59:08;;;;;;;7.20;4.53;;;4.90;79.90;;;;;;4879304;29;20230;-89
2022/04/12 06:01:33;;;;;;;8.90;4.40;;;5.00;80.00;;;;;;4879675;29;20652;-89
2022/04/12 06:03:59;;;;;;;5.10;4.20;;;5.00;80.20;;;;;;4879168;29;20183;-89
2022/04/12 06:06:24;;;;;;;11.07;4.60;;;5.00;79.50;;;;;;4880973;29;20182;-89
2022/04/12 06:08:50;;;;;;;6.70;4.50;;;5.10;79.20;;;;;;4879143;29;20755;-89
2022/04/12 06:11:16;;;;;;;9.20;4.53;;;5.20;79.20;;;;;;4879363;29;20187;-89
2022/04/12 06:13:41;;;;;;;9.70;5.23;;;5.20;79.00;;;;;;4879495;29;20186;-89
2022/04/12 06:16:07;;;;;;;10.63;4.83;;;5.30;78.90;;;;;;4879392;29;20209;-88
2022/04/12 06:18:32;;;;;;;9.80;5.17;;;5.30;79.00;;;;;;4879329;29;20206;-88
2022/04/12 06:20:58;;;;;;;12.13;5.17;;;5.30;78.10;;;;;;4879431;29;20215;-89
2022/04/12 06:23:23;;;;;;;11.70;5.20;;;5.30;77.70;;;;;;4879778;29;20183;-88
2022/04/12 06:25:49;;;;;;;8.00;4.77;;;5.40;78.10;;;;;;4881781;29;20183;-89
2022/04/12 06:28:14;;;;;;;11.07;5.30;;;5.50;78.00;;;;;;4884566;29;20208;-88
2022/04/12 06:30:40;;;;;;;6.63;4.70;;;5.50;78.30;;;;;;4883109;29;20196;-91
2022/04/12 06:33:05;;;;;;;5.13;4.50;;;5.50;78.10;;;;;;4883522;29;20189;-88
2022/04/12 06:35:31;;;;;;;9.60;4.87;;;5.60;77.50;;;;;;4883136;29;20215;-88
2022/04/12 06:37:57;;;;;;;8.33;4.80;;;5.60;77.10;;;;;;4882656;29;20203;-89
2022/04/12 06:40:23;;;;;;;7.30;4.60;;;5.70;76.60;;;;;;4882359;29;20186;-90
2022/04/12 06:42:50;;;;;;;6.70;4.93;;;5.80;76.60;;;;;;4882276;29;20255;-90
2022/04/12 06:45:16;;;;;;;9.20;4.83;;;5.80;77.00;;;;;;4882516;29;20205;-90
2022/04/12 06:47:43;;;;;;;10.77;5.53;;;5.80;77.20;;;;;;4882355;29;20686;-88
2022/04/12 06:50:10;;;;;;;9.57;5.20;;;5.90;76.80;;;;;;4883798;29;20215;-87
2022/04/12 06:52:36;;;;;;;9.80;5.03;;;5.90;77.00;;;;;;4883431;29;20197;-90
2022/04/12 06:55:03;;;;;;;6.50;5.30;;;6.00;77.10;;;;;;4882178;29;20235;-90
2022/04/12 06:57:33;;;;;;;11.70;5.30;;;6.00;77.00;;;;;;4882424;29;20656;-89
2022/04/12 06:59:58;;;;;;;8.60;4.60;;;6.10;77.00;;;;;;4882349;29;20195;-88
2022/04/12 07:02:24;;;;;;;7.87;4.90;;;6.20;76.50;;;;;;4885613;29;20206;-87
2022/04/12 07:04:50;;;;;;;11.97;5.40;;;6.20;75.80;;;;;;4882247;29;20182;-92
2022/04/12 07:07:15;;;;;;;6.40;5.03;;;6.30;75.60;;;;;;4881944;29;20655;-91
2022/04/12 07:09:41;;;;;;;9.97;5.27;;;6.40;75.80;;;;;;4881970;29;20307;-88
2022/04/12 07:12:07;;;;;;;16.73;5.20;;;6.40;75.20;;;;;;4882416;29;20252;-87
2022/04/12 07:14:33;;;;;;;10.63;5.10;;;6.50;75.20;;;;;;4882082;29;20272;-90
2022/04/12 07:16:59;;;;;;;9.07;5.13;;;6.70;76.00;;;;;;4882061;29;20232;-90
2022/04/12 07:19:25;;;;;;;12.23;5.20;;;6.70;74.90;;;;;;4883015;29;20615;-89
2022/04/12 07:21:51;;;;;;;13.27;5.50;;;6.80;74.50;;;;;;4881876;29;20213;-88
2022/04/12 07:24:17;;;;;;;10.00;4.93;;;7.00;74.60;;;;;;4883280;29;20178;-87
2022/04/12 07:26:43;;;;;;;7.67;4.70;;;7.00;73.80;;;;;;4882001;29;20712;-87
2022/04/12 07:29:08;;;;;;;9.67;5.30;;;7.10;73.60;;;;;;4882176;29;20209;-89
2022/04/12 07:31:34;;;;;;;8.40;4.73;;;7.20;73.70;;;;;;4881827;29;20232;-88
2022/04/12 07:34:00;;;;;;;11.50;6.93;;;7.30;72.10;;;;;;4881981;29;20193;-91
2022/04/12 07:36:25;;;;;;;12.27;5.57;;;7.40;72.50;;;;;;4882749;29;20645;-89
2022/04/12 07:38:51;;;;;;;7.90;5.03;;;7.50;71.70;;;;;;4882974;29;20209;-88
2022/04/12 07:41:17;;;;;;;7.17;4.90;;;7.70;71.70;;;;;;4881694;29;20210;-88
2022/04/12 07:43:45;;;;;;;8.83;4.90;;;7.80;71.00;;;;;;4883237;29;20255;-88
2022/04/12 07:46:14;;;;;;;8.97;4.47;;;7.90;70.50;;;;;;4881941;29;20182;-88
2022/04/12 07:48:40;;;;;;;5.00;4.50;;;8.00;69.60;;;;;;4881616;29;20293;-88
2022/04/12 07:51:06;;;;;;;7.43;5.00;;;8.10;69.50;;;;;;4883243;29;20242;-88
2022/04/12 07:53:32;;;;;;;13.17;5.40;;;8.30;69.90;;;;;;4883210;29;20178;-88
2022/04/12 07:55:57;;;;;;;9.60;4.33;;;8.30;68.50;;;;;;4881604;29;20629;-88
2022/04/12 07:58:23;;;;;;;7.83;4.53;;;8.40;67.30;;;;;;4881733;29;20300;-89
2022/04/12 08:00:49;;;;;;;8.20;4.40;;;8.60;67.70;;;;;;4881591;29;20244;-89
2022/04/12 08:03:14;;;;;;;8.37;4.03;;;8.70;68.20;;;;;;4882188;29;20717;-89
2022/04/12 08:05:40;;;;;;;8.43;4.90;;;8.80;65.70;;;;;;4882965;29;20273;-88
2022/04/12 08:08:06;;;;;;;9.23;3.70;;;8.90;63.90;;;;;;4881171;29;20220;-87
2022/04/12 08:10:31;;;;;;;9.80;4.43;;;9.00;65.00;;;;;;4882304;29;20182;-89
2022/04/12 08:12:57;;;;;;;6.70;4.17;;;9.00;64.70;;;;;;4881515;29;20243;-88
2022/04/12 08:15:24;;;;;;;10.40;4.30;;;9.20;64.80;;;;;;4882170;29;20174;-89
2022/04/12 08:17:50;;;;;;;7.77;4.17;;;9.40;65.50;;;;;;4882218;29;20198;-88
2022/04/12 08:20:16;;;;;;;12.10;4.60;;;9.50;64.20;;;;;;4882152;29;20261;-88
2022/04/12 08:22:42;;;;;;;6.03;3.90;;;9.70;62.90;;;;;;4881178;29;20318;-88
2022/04/12 08:25:09;;;;;;;9.13;4.20;;;9.90;62.30;;;;;;4880965;29;20189;-88
2022/04/12 08:27:35;;;;;;;10.93;4.13;;;10.00;61.40;;;;;;4881242;29;20185;-88
2022/04/12 08:30:02;;;;;;;6.23;3.57;;;10.00;59.60;;;;;;4882524;29;20254;-88
2022/04/12 08:32:29;;;;;;;6.67;4.03;;;10.20;58.30;;;;;;4880736;29;20193;-88
2022/04/12 08:34:55;;;;;;;9.97;3.93;;;10.30;61.30;;;;;;4882325;29;20174;-88
2022/04/12 08:37:21;;;;;;;5.27;3.93;;;10.30;57.10;;;;;;4880809;29;20182;-89
2022/04/12 08:39:47;;;;;;;4.97;3.63;;;10.60;58.70;;;;;;4880680;29;20626;-89
2022/04/12 08:42:13;;;;;;;6.40;4.30;;;10.80;59.20;;;;;;4880518;29;20205;-89
2022/04/12 08:44:42;;;;;;;6.63;3.70;;;10.90;59.90;;;;;;4880633;29;20178;-88
2022/04/12 08:47:08;;;;;;;4.73;3.53;;;10.90;57.20;;;;;;4881087;29;20181;-87
2022/04/12 08:49:35;;;;;;;7.40;3.73;;;11.10;56.80;;;;;;4880829;29;20202;-89
2022/04/12 08:52:02;;;;;;;5.50;3.30;;;11.10;55.80;;;;;;4882034;29;20676;-88
2022/04/12 08:54:28;;;;;;;6.53;3.57;;;11.30;55.90;;;;;;4882549;29;20214;-88
2022/04/12 08:56:54;;;;;;;8.40;3.67;;;11.50;54.00;;;;;;4885030;29;20568;-87
2022/04/12 08:59:20;;;;;;;5.07;3.70;;;11.70;55.30;;;;;;4880319;29;20210;-90
2022/04/12 09:01:46;;;;;;;8.30;3.83;;;11.90;53.90;;;;;;4879845;29;20217;-90
2022/04/12 09:04:12;;;;;;;7.00;4.10;;;12.00;54.40;;;;;;4879767;29;20182;-91
2022/04/12 09:06:49;;;;;;;6.37;3.47;;;12.30;53.40;;;;;;4879688;29;20234;-90
2022/04/12 09:09:20;;;;;;;10.27;4.20;;;12.30;51.80;;;;;;4879540;29;20221;-90
2022/04/12 09:11:59;;;;;;;7.13;4.00;;;12.30;50.70;;;;;;4879585;29;20616;-90
2022/04/12 09:14:34;;;;;;;6.43;4.13;;;12.30;51.40;;;;;;4880555;29;20184;-89
2022/04/12 09:17:00;;;;;;;4.83;3.90;;;12.40;51.60;;;;;;4880945;29;20170;-91
2022/04/12 09:19:45;;;;;;;8.50;4.20;;;12.50;53.00;;;;;;4879923;29;20206;-90
2022/04/12 09:22:15;;;;;;;10.77;4.80;;;12.70;50.60;;;;;;4880576;29;20214;-87
2022/04/12 09:24:53;;;;;;;9.83;4.23;;;12.70;50.80;;;;;;4879840;29;20185;-89
2022/04/12 09:27:21;;;;;;;7.13;4.07;;;12.80;51.20;;;;;;4881307;29;20552;-91
2022/04/12 09:29:52;;;;;;;8.20;5.07;;;12.60;47.50;;;;;;4880584;29;20198;-87
2022/04/12 09:32:29;;;;;;;5.63;4.03;;;12.60;49.40;;;;;;4885114;29;20245;-89
2022/04/12 09:34:56;;;;;;;10.27;4.37;;;12.80;50.50;;;;;;4887465;29;20185;-89
2022/04/12 09:37:27;;;;;;;8.03;4.70;;;12.70;48.00;;;;;;4888336;29;20186;-89
2022/04/12 09:39:58;;;;;;;9.43;4.93;;;12.80;49.30;;;;;;4888560;29;20174;-88
2022/04/12 09:42:43;;;;;;;8.30;4.87;;;12.90;51.10;;;;;;4885014;29;20209;-88
2022/04/12 09:45:14;;;;;;;6.63;4.83;;;13.00;49.50;;;;;;4881041;29;20184;-88
2022/04/12 09:47:41;;;;;;;10.43;5.57;;;13.00;48.20;;;;;;4879388;29;20266;-89
2022/04/12 09:50:08;;;;;;;8.70;5.07;;;12.90;48.40;;;;;;4882875;29;20578;-86
2022/04/12 09:52:33;;;;;;;9.50;4.83;;;12.90;50.50;;;;;;4879284;29;20206;-89
2022/04/12 09:54:59;;;;;;;7.17;4.27;;;12.80;48.80;;;;;;4879044;29;20222;-89
2022/04/12 09:57:25;;;;;;;6.90;4.53;;;12.80;48.10;;;;;;4880262;29;20600;-88
2022/04/12 09:59:56;;;;;;;8.17;4.50;;;12.80;48.70;;;;;;4878490;29;20722;-88
2022/04/12 10:02:24;;;;;;;6.73;4.87;;;12.80;48.50;;;;;;4878566;29;20233;-89
2022/04/12 10:04:52;;;;;;;8.67;5.70;;;12.80;48.90;;;;;;4878881;29;20542;-89
2022/04/12 10:07:20;;;;;;;8.80;5.00;;;12.80;49.50;;;;;;4880265;29;20175;-87
2022/04/12 10:09:51;;;;;;;6.63;4.23;;;12.80;49.90;;;;;;4879284;29;20220;-86
2022/04/12 10:12:18;;;;;;;9.10;5.00;;;12.70;48.60;;;;;;4879701;29;20178;-87
2022/04/12 10:14:45;;;;;;;9.33;5.60;;;12.70;49.60;;;;;;4879537;29;20204;-87
2022/04/12 10:17:13;;;;;;;8.70;5.43;;;12.70;51.80;;;;;;4879079;29;20214;-87
2022/04/12 10:19:40;;;;;;;4.47;3.90;;;12.80;52.00;;;;;;4879337;29;20210;-86
2022/04/12 10:22:06;;;;;;;7.27;5.13;;;12.90;49.50;;;;;;4879197;29;20304;-87
2022/04/12 10:24:33;;;;;;;5.30;3.87;;;13.00;49.60;;;;;;4879013;29;20269;-88
2022/04/12 10:26:59;;;;;;;7.43;4.77;;;13.10;50.10;;;;;;4879596;29;20218;-86
2022/04/12 10:29:25;;;;;;;6.80;4.77;;;13.10;50.10;;;;;;4880482;29;20205;-88
2022/04/12 10:31:55;;;;;;;6.40;4.50;;;13.10;49.30;;;;;;4880351;29;20182;-89
2022/04/12 10:34:21;;;;;;;6.20;4.33;;;12.90;49.50;;;;;;4878688;29;20174;-88
2022/04/12 10:36:53;;;;;;;11.47;4.83;;;13.00;49.10;;;;;;4878803;29;20182;-88
2022/04/12 10:39:20;;;;;;;5.77;4.73;;;13.00;49.20;;;;;;4879690;29;20202;-89
2022/04/12 10:41:49;;;;;;;6.80;4.90;;;13.20;50.20;;;;;;4879823;29;20565;-89
2022/04/12 10:44:22;;;;;;;9.17;5.13;;;13.30;48.20;;;;;;4878462;29;20189;-88
2022/04/12 10:46:51;;;;;;;6.07;4.60;;;13.60;50.00;;;;;;4878455;29;20641;-88
2022/04/12 10:49:19;;;;;;;8.23;4.43;;;14.00;51.00;;;;;;4879651;29;20206;-88
2022/04/12 10:51:46;;;;;;;6.47;4.70;;;14.00;48.20;;;;;;4878572;29;20238;-88
2022/04/12 10:54:34;;;;;;;9.73;5.00;;;14.20;50.30;;;;;;4880089;29;20266;-92
2022/04/12 10:57:18;;;;;;;7.93;5.20;;;14.30;48.00;;;;;;4880542;29;20182;-92
2022/04/12 11:00:15;;;;;;;9.07;5.10;;;14.50;47.60;;;;;;4880604;29;20273;-91
2022/04/12 11:02:51;;;;;;;6.47;4.67;;;14.70;46.10;;;;;;4879868;29;20205;-92
2022/04/12 11:05:53;;;;;;;9.40;5.77;;;14.40;47.10;;;;;;4882096;29;20170;-93
2022/04/12 11:08:18;;;;;;;7.50;5.50;;;14.70;46.40;;;;;;4864305;29;20221;-94
2022/04/12 11:11:09;;;;;;;7.93;5.00;;;14.80;47.10;;;;;;4882424;29;20194;-93
2022/04/12 11:13:35;;;;;;;10.33;5.53;;;14.80;46.30;;;;;;4877801;29;20201;-92
2022/04/12 11:16:09;;;;;;;7.50;4.67;;;14.80;47.80;;;;;;4883987;29;20189;-93
2022/04/12 11:18:55;;;;;;;6.50;5.00;;;14.80;46.10;;;;;;4884478;29;20696;-92
2022/04/12 11:21:46;;;;;;;8.13;5.60;;;14.80;46.40;;;;;;4883022;29;20206;-91
2022/04/12 11:24:14;;;;;;;9.87;5.67;;;15.00;46.60;;;;;;4882963;29;20653;-91
2022/04/12 11:26:50;;;;;;;7.43;4.70;;;14.90;46.60;;;;;;4882690;29;20205;-91
2022/04/12 11:29:26;;;;;;;10.43;5.77;;;15.00;44.00;;;;;;4882683;29;20206;-94
2022/04/12 11:31:56;;;;;;;9.03;5.20;;;15.00;45.10;;;;;;4888812;29;20185;-93
2022/04/12 11:34:26;;;;;;;11.37;5.73;;;15.10;46.30;;;;;;4882400;29;20210;-90
2022/04/12 11:36:57;;;;;;;9.50;5.33;;;15.10;46.00;;;;;;4882803;29;20265;-90
2022/04/12 11:39:32;;;;;;;8.27;6.10;;;15.10;47.50;;;;;;4883912;29;20625;-92
2022/04/12 11:41:59;;;;;;;8.30;5.70;;;15.20;47.00;;;;;;4891794;29;20253;-92
2022/04/12 11:44:25;;;;;;;10.13;5.53;;;15.40;46.10;;;;;;4895107;29;20197;-92
2022/04/12 11:47:01;;;;;;;9.57;5.47;;;15.50;45.90;;;;;;4886032;29;20723;-91
2022/04/12 11:49:41;;;;;;;9.40;5.83;;;15.30;44.70;;;;;;4883412;29;20202;-93
2022/04/12 11:52:12;;;;;;;8.53;5.77;;;15.30;44.80;;;;;;4883418;29;20257;-91
2022/04/12 11:54:39;;;;;;;9.80;6.63;;;15.40;44.90;;;;;;4891689;29;20194;-93
2022/04/12 11:57:24;;;;;;;8.30;6.10;;;15.40;44.90;;;;;;4886036;29;20183;-92
2022/04/12 11:59:57;;;;;;;7.63;6.07;;;15.40;45.80;;;;;;4885166;29;20207;-91
2022/04/12 12:02:25;;;;;;;7.03;5.63;;;15.40;45.00;;;;;;4885643;29;20210;-92
2022/04/12 12:04:57;;;;;;;8.00;5.70;;;15.60;45.20;;;;;;4886074;29;20210;-93
2022/04/12 12:07:23;;;;;;;10.40;6.27;;;15.70;44.20;;;;;;4887323;29;20261;-93
2022/04/12 12:10:00;;;;;;;10.93;6.37;;;15.40;44.80;;;;;;4890129;29;20732;-93
2022/04/12 12:12:45;;;;;;;8.60;6.50;;;15.40;43.70;;;;;;4890833;29;20182;-93
2022/04/12 12:15:13;;;;;;;9.98;6.90;;;15.50;46.20;;;;;;4893102;29;20233;-93
2022/04/12 12:17:39;;;;;;;10.38;5.75;;;15.70;45.50;;;;;;4881295;29;20182;-91
2022/04/12 12:20:07;;;;;;;10.45;6.65;;;15.70;45.00;;;;;;4881917;29;20338;-92
2022/04/12 12:22:37;;;;;;;11.75;6.20;;;15.70;46.00;;;;;;4881027;29;20221;-92
2022/04/12 12:25:03;;;;;;;10.43;7.28;;;15.70;44.50;;;;;;4880978;29;20182;-92
2022/04/12 12:27:38;;;;;;;10.13;6.75;;;15.70;44.80;;;;;;4885790;29;20204;-93
2022/04/12 12:30:15;;;;;;;8.27;5.82;;;15.80;44.90;;;;;;4887891;29;20174;-93
2022/04/12 12:32:43;;;;;;;8.05;6.35;;;15.80;44.60;;;;;;4886596;29;20307;-92
2022/04/12 12:35:14;;;;;;;9.57;5.25;;;16.10;43.40;;;;;;4895056;29;20254;-93
2022/04/12 12:37:41;;;;;;;9.98;6.75;;;16.20;43.10;;;;;;4900880;29;20202;-93
2022/04/12 12:40:26;;;;;;;9.38;6.20;;;16.20;44.10;;;;;;4902185;29;20180;-92
2022/04/12 12:42:54;;;;;;;8.88;6.45;;;16.30;43.50;;;;;;4903905;29;20173;-93
2022/04/12 12:45:22;;;;;;;11.40;6.57;;;16.30;42.60;;;;;;4883735;29;20213;-91
2022/04/12 12:47:54;;;;;;;7.30;5.15;;;16.30;46.20;;;;;;4880555;29;20689;-91
2022/04/12 12:50:22;;;;;;;8.70;6.10;;;16.20;42.80;;;;;;4881517;29;20221;-91
2022/04/12 12:52:48;;;;;;;12.07;6.60;;;16.30;45.00;;;;;;4881534;29;20208;-91
2022/04/12 12:55:19;;;;;;;9.13;6.63;;;16.30;42.60;;;;;;4881170;29;20557;-87